Terminal Aerodrome Forecast
Issued by NWS

Home | Current Version | Previous Version | Text Only | Print | Product List | Glossary On
Versions: 1 2 3 4 5 6 7 8 9 10 11 12 13
000
FTUS43 KTOP 261500 AAA
TAFMHK
TAF AMD
KMHK 261547Z 2616/2712 01009KT 5SM BR BKN006
     FM261700 03006KT 6SM BR OVC012
     FM270000 01006KT 4SM -RASN BR OVC009=

USA.gov is the U.S. government's official web portal to all federal, state and local government web resources and services.